sensor_id;sensor_type;location;lat;lon;timestamp;P1;durP1;ratioP1;P2;durP2;ratioP2
4652;SDS011;9900;48.738;9.306;2022-10-26T00:01:20;8.40;;;3.03;;
4652;SDS011;9900;48.738;9.306;2022-10-26T00:03:49;8.47;;;2.57;;
4652;SDS011;9900;48.738;9.306;2022-10-26T00:06:19;6.80;;;3.10;;
4652;SDS011;9900;48.738;9.306;2022-10-26T00:08:48;14.80;;;3.47;;
4652;SDS011;9900;48.738;9.306;2022-10-26T00:11:17;9.67;;;3.70;;
4652;SDS011;9900;48.738;9.306;2022-10-26T00:13:46;11.77;;;2.70;;
4652;SDS011;9900;48.738;9.306;2022-10-26T00:16:17;7.50;;;3.27;;
4652;SDS011;9900;48.738;9.306;2022-10-26T00:18:47;5.97;;;3.17;;
4652;SDS011;9900;48.738;9.306;2022-10-26T00:21:16;5.90;;;3.60;;
4652;SDS011;9900;48.738;9.306;2022-10-26T00:23:45;3.60;;;2.97;;
4652;SDS011;9900;48.738;9.306;2022-10-26T00:26:14;8.13;;;2.83;;
4652;SDS011;9900;48.738;9.306;2022-10-26T00:28:42;11.70;;;3.17;;
4652;SDS011;9900;48.738;9.306;2022-10-26T00:31:12;3.60;;;2.90;;
4652;SDS011;9900;48.738;9.306;2022-10-26T00:33:43;6.90;;;3.03;;
4652;SDS011;9900;48.738;9.306;2022-10-26T00:36:12;4.07;;;3.00;;
4652;SDS011;9900;48.738;9.306;2022-10-26T00:38:46;6.70;;;3.30;;
4652;SDS011;9900;48.738;9.306;2022-10-26T00:41:16;6.90;;;3.40;;
4652;SDS011;9900;48.738;9.306;2022-10-26T00:43:45;5.53;;;3.27;;
4652;SDS011;9900;48.738;9.306;2022-10-26T00:46:15;6.50;;;3.23;;
4652;SDS011;9900;48.738;9.306;2022-10-26T00:48:48;5.13;;;2.73;;
4652;SDS011;9900;48.738;9.306;2022-10-26T00:51:21;7.77;;;3.17;;
4652;SDS011;9900;48.738;9.306;2022-10-26T00:53:52;11.60;;;3.47;;
4652;SDS011;9900;48.738;9.306;2022-10-26T00:56:21;11.60;;;3.70;;
4652;SDS011;9900;48.738;9.306;2022-10-26T00:58:50;15.70;;;3.10;;
4652;SDS011;9900;48.738;9.306;2022-10-26T01:01:19;8.83;;;3.40;;
4652;SDS011;9900;48.738;9.306;2022-10-26T01:03:50;3.10;;;2.80;;
4652;SDS011;9900;48.738;9.306;2022-10-26T01:06:18;8.10;;;3.30;;
4652;SDS011;9900;48.738;9.306;2022-10-26T01:08:48;10.07;;;3.27;;
4652;SDS011;9900;48.738;9.306;2022-10-26T01:11:17;9.10;;;3.57;;
4652;SDS011;9900;48.738;9.306;2022-10-26T01:13:46;13.20;;;3.20;;
4652;SDS011;9900;48.738;9.306;2022-10-26T01:16:28;6.33;;;3.73;;
4652;SDS011;9900;48.738;9.306;2022-10-26T01:19:17;12.33;;;3.50;;
4652;SDS011;9900;48.738;9.306;2022-10-26T01:21:59;7.50;;;3.50;;
4652;SDS011;9900;48.738;9.306;2022-10-26T01:24:34;6.93;;;3.13;;
4652;SDS011;9900;48.738;9.306;2022-10-26T01:27:21;3.97;;;2.97;;
4652;SDS011;9900;48.738;9.306;2022-10-26T01:33:03;8.70;;;3.73;;
4652;SDS011;9900;48.738;9.306;2022-10-26T01:35:53;12.63;;;4.07;;
4652;SDS011;9900;48.738;9.306;2022-10-26T01:38:28;9.90;;;3.57;;
4652;SDS011;9900;48.738;9.306;2022-10-26T01:41:01;6.30;;;3.40;;
4652;SDS011;9900;48.738;9.306;2022-10-26T01:43:32;12.57;;;3.80;;
4652;SDS011;9900;48.738;9.306;2022-10-26T01:46:04;10.13;;;3.77;;
4652;SDS011;9900;48.738;9.306;2022-10-26T01:48:34;6.80;;;4.00;;
4652;SDS011;9900;48.738;9.306;2022-10-26T01:51:04;12.90;;;4.07;;
4652;SDS011;9900;48.738;9.306;2022-10-26T01:53:34;12.80;;;4.47;;
4652;SDS011;9900;48.738;9.306;2022-10-26T01:56:02;12.10;;;3.63;;
4652;SDS011;9900;48.738;9.306;2022-10-26T02:05:04;6.50;;;3.60;;
4652;SDS011;9900;48.738;9.306;2022-10-26T02:07:38;9.53;;;3.40;;
4652;SDS011;9900;48.738;9.306;2022-10-26T02:10:15;16.93;;;3.57;;
4652;SDS011;9900;48.738;9.306;2022-10-26T02:12:49;6.27;;;3.53;;
4652;SDS011;9900;48.738;9.306;2022-10-26T02:15:24;8.47;;;3.77;;
4652;SDS011;9900;48.738;9.306;2022-10-26T02:17:55;6.20;;;3.30;;
4652;SDS011;9900;48.738;9.306;2022-10-26T02:20:29;6.87;;;3.30;;
4652;SDS011;9900;48.738;9.306;2022-10-26T02:23:00;6.53;;;3.60;;
4652;SDS011;9900;48.738;9.306;2022-10-26T02:25:33;12.80;;;3.60;;
4652;SDS011;9900;48.738;9.306;2022-10-26T02:28:04;10.23;;;3.77;;
4652;SDS011;9900;48.738;9.306;2022-10-26T02:30:34;9.73;;;4.07;;
4652;SDS011;9900;48.738;9.306;2022-10-26T02:33:04;7.73;;;3.70;;
4652;SDS011;9900;48.738;9.306;2022-10-26T02:35:35;5.17;;;3.13;;
4652;SDS011;9900;48.738;9.306;2022-10-26T02:38:06;8.40;;;3.30;;
4652;SDS011;9900;48.738;9.306;2022-10-26T02:40:37;5.67;;;3.23;;
4652;SDS011;9900;48.738;9.306;2022-10-26T02:43:07;5.20;;;3.20;;
4652;SDS011;9900;48.738;9.306;2022-10-26T02:45:40;4.40;;;3.00;;
4652;SDS011;9900;48.738;9.306;2022-10-26T02:48:11;18.00;;;4.20;;
4652;SDS011;9900;48.738;9.306;2022-10-26T02:50:42;5.33;;;3.40;;
4652;SDS011;9900;48.738;9.306;2022-10-26T02:53:17;12.27;;;3.70;;
4652;SDS011;9900;48.738;9.306;2022-10-26T02:55:51;7.77;;;3.50;;
4652;SDS011;9900;48.738;9.306;2022-10-26T02:58:21;9.60;;;3.93;;
4652;SDS011;9900;48.738;9.306;2022-10-26T03:00:51;9.60;;;3.90;;
4652;SDS011;9900;48.738;9.306;2022-10-26T03:03:20;11.23;;;3.57;;
4652;SDS011;9900;48.738;9.306;2022-10-26T03:05:50;9.27;;;4.10;;
4652;SDS011;9900;48.738;9.306;2022-10-26T03:08:19;5.07;;;3.27;;
4652;SDS011;9900;48.738;9.306;2022-10-26T03:10:47;6.00;;;3.40;;
4652;SDS011;9900;48.738;9.306;2022-10-26T03:13:16;14.83;;;3.63;;
4652;SDS011;9900;48.738;9.306;2022-10-26T03:15:44;8.17;;;3.90;;
4652;SDS011;9900;48.738;9.306;2022-10-26T03:18:13;7.13;;;3.97;;
4652;SDS011;9900;48.738;9.306;2022-10-26T03:20:42;6.00;;;3.10;;
4652;SDS011;9900;48.738;9.306;2022-10-26T03:23:13;8.53;;;3.97;;
4652;SDS011;9900;48.738;9.306;2022-10-26T03:25:41;6.80;;;3.40;;
4652;SDS011;9900;48.738;9.306;2022-10-26T03:28:10;9.80;;;3.77;;
4652;SDS011;9900;48.738;9.306;2022-10-26T03:30:38;9.43;;;3.90;;
4652;SDS011;9900;48.738;9.306;2022-10-26T03:33:07;11.30;;;4.20;;
4652;SDS011;9900;48.738;9.306;2022-10-26T03:35:36;9.50;;;4.20;;
4652;SDS011;9900;48.738;9.306;2022-10-26T03:38:04;9.40;;;3.57;;
4652;SDS011;9900;48.738;9.306;2022-10-26T03:40:34;8.10;;;4.30;;
4652;SDS011;9900;48.738;9.306;2022-10-26T03:43:03;9.70;;;4.80;;
4652;SDS011;9900;48.738;9.306;2022-10-26T03:45:32;8.13;;;4.20;;
4652;SDS011;9900;48.738;9.306;2022-10-26T03:48:00;6.37;;;3.90;;
4652;SDS011;9900;48.738;9.306;2022-10-26T03:50:29;6.90;;;4.40;;
4652;SDS011;9900;48.738;9.306;2022-10-26T03:52:57;13.30;;;4.03;;
4652;SDS011;9900;48.738;9.306;2022-10-26T03:55:26;20.33;;;5.73;;
4652;SDS011;9900;48.738;9.306;2022-10-26T03:57:56;12.57;;;4.53;;
4652;SDS011;9900;48.738;9.306;2022-10-26T04:00:24;11.63;;;4.80;;
4652;SDS011;9900;48.738;9.306;2022-10-26T04:02:53;10.93;;;6.37;;
4652;SDS011;9900;48.738;9.306;2022-10-26T04:05:23;14.50;;;5.23;;
4652;SDS011;9900;48.738;9.306;2022-10-26T04:07:53;12.93;;;4.80;;
4652;SDS011;9900;48.738;9.306;2022-10-26T04:10:22;6.73;;;4.00;;
4652;SDS011;9900;48.738;9.306;2022-10-26T04:12:51;8.73;;;4.10;;
4652;SDS011;9900;48.738;9.306;2022-10-26T04:15:21;16.83;;;3.90;;
4652;SDS011;9900;48.738;9.306;2022-10-26T04:17:53;10.63;;;3.20;;
4652;SDS011;9900;48.738;9.306;2022-10-26T04:20:23;11.10;;;3.83;;
4652;SDS011;9900;48.738;9.306;2022-10-26T04:22:58;8.17;;;3.40;;
4652;SDS011;9900;48.738;9.306;2022-10-26T04:25:27;14.60;;;3.57;;
4652;SDS011;9900;48.738;9.306;2022-10-26T04:27:59;9.10;;;3.37;;
4652;SDS011;9900;48.738;9.306;2022-10-26T04:30:30;8.20;;;3.10;;
4652;SDS011;9900;48.738;9.306;2022-10-26T04:32:59;8.93;;;3.57;;
4652;SDS011;9900;48.738;9.306;2022-10-26T04:35:28;7.30;;;3.43;;
4652;SDS011;9900;48.738;9.306;2022-10-26T04:37:57;6.47;;;3.10;;
4652;SDS011;9900;48.738;9.306;2022-10-26T04:40:26;5.13;;;3.43;;
4652;SDS011;9900;48.738;9.306;2022-10-26T04:42:55;7.23;;;3.40;;
4652;SDS011;9900;48.738;9.306;2022-10-26T04:45:23;4.63;;;3.20;;
4652;SDS011;9900;48.738;9.306;2022-10-26T04:47:59;8.43;;;4.00;;
4652;SDS011;9900;48.738;9.306;2022-10-26T04:50:28;9.90;;;3.30;;
4652;SDS011;9900;48.738;9.306;2022-10-26T04:52:56;13.33;;;3.73;;
4652;SDS011;9900;48.738;9.306;2022-10-26T04:55:25;7.10;;;3.17;;
4652;SDS011;9900;48.738;9.306;2022-10-26T04:57:54;8.03;;;3.97;;
4652;SDS011;9900;48.738;9.306;2022-10-26T05:00:27;10.77;;;3.33;;
4652;SDS011;9900;48.738;9.306;2022-10-26T05:03:00;9.70;;;3.73;;
4652;SDS011;9900;48.738;9.306;2022-10-26T05:05:30;9.30;;;2.90;;
4652;SDS011;9900;48.738;9.306;2022-10-26T05:08:00;9.70;;;3.33;;
4652;SDS011;9900;48.738;9.306;2022-10-26T05:10:28;6.43;;;3.40;;
4652;SDS011;9900;48.738;9.306;2022-10-26T05:12:58;6.27;;;3.33;;
4652;SDS011;9900;48.738;9.306;2022-10-26T05:15:28;7.30;;;3.47;;
4652;SDS011;9900;48.738;9.306;2022-10-26T05:17:57;9.30;;;3.53;;
4652;SDS011;9900;48.738;9.306;2022-10-26T05:20:29;8.33;;;4.03;;
4652;SDS011;9900;48.738;9.306;2022-10-26T05:22:59;7.53;;;3.57;;
4652;SDS011;9900;48.738;9.306;2022-10-26T05:25:29;7.77;;;3.57;;
4652;SDS011;9900;48.738;9.306;2022-10-26T05:27:59;4.70;;;3.77;;
4652;SDS011;9900;48.738;9.306;2022-10-26T05:30:29;5.20;;;3.70;;
4652;SDS011;9900;48.738;9.306;2022-10-26T05:32:58;7.80;;;3.10;;
4652;SDS011;9900;48.738;9.306;2022-10-26T05:35:30;5.47;;;3.63;;
4652;SDS011;9900;48.738;9.306;2022-10-26T05:37:59;8.80;;;4.03;;
4652;SDS011;9900;48.738;9.306;2022-10-26T05:40:34;3.97;;;3.43;;
4652;SDS011;9900;48.738;9.306;2022-10-26T05:43:02;9.00;;;4.13;;
4652;SDS011;9900;48.738;9.306;2022-10-26T05:45:31;5.50;;;3.50;;
4652;SDS011;9900;48.738;9.306;2022-10-26T05:48:00;6.27;;;3.80;;
4652;SDS011;9900;48.738;9.306;2022-10-26T05:50:30;5.17;;;3.70;;
4652;SDS011;9900;48.738;9.306;2022-10-26T05:52:59;6.77;;;3.63;;
4652;SDS011;9900;48.738;9.306;2022-10-26T05:55:28;6.10;;;3.53;;
4652;SDS011;9900;48.738;9.306;2022-10-26T05:57:57;7.23;;;4.00;;
4652;SDS011;9900;48.738;9.306;2022-10-26T06:00:27;7.00;;;3.33;;
4652;SDS011;9900;48.738;9.306;2022-10-26T06:03:03;7.40;;;3.63;;
4652;SDS011;9900;48.738;9.306;2022-10-26T06:05:39;7.10;;;4.07;;
4652;SDS011;9900;48.738;9.306;2022-10-26T06:08:12;47.80;;;5.20;;
4652;SDS011;9900;48.738;9.306;2022-10-26T06:10:42;13.43;;;5.10;;
4652;SDS011;9900;48.738;9.306;2022-10-26T06:13:12;11.10;;;4.00;;
4652;SDS011;9900;48.738;9.306;2022-10-26T06:15:44;21.90;;;4.90;;
4652;SDS011;9900;48.738;9.306;2022-10-26T06:18:22;12.63;;;3.40;;
4652;SDS011;9900;48.738;9.306;2022-10-26T06:21:01;10.73;;;4.37;;
4652;SDS011;9900;48.738;9.306;2022-10-26T06:23:38;15.20;;;4.40;;
4652;SDS011;9900;48.738;9.306;2022-10-26T06:26:14;13.00;;;4.10;;
4652;SDS011;9900;48.738;9.306;2022-10-26T06:28:49;8.53;;;4.50;;
4652;SDS011;9900;48.738;9.306;2022-10-26T06:31:23;6.67;;;3.90;;
4652;SDS011;9900;48.738;9.306;2022-10-26T06:33:52;10.70;;;4.03;;
4652;SDS011;9900;48.738;9.306;2022-10-26T06:36:27;9.60;;;4.30;;
4652;SDS011;9900;48.738;9.306;2022-10-26T06:38:57;12.93;;;4.57;;
4652;SDS011;9900;48.738;9.306;2022-10-26T06:41:29;11.30;;;4.70;;
4652;SDS011;9900;48.738;9.306;2022-10-26T06:43:58;7.80;;;4.20;;
4652;SDS011;9900;48.738;9.306;2022-10-26T06:46:29;6.00;;;3.83;;
4652;SDS011;9900;48.738;9.306;2022-10-26T06:49:06;7.27;;;4.90;;
4652;SDS011;9900;48.738;9.306;2022-10-26T06:51:41;12.00;;;4.90;;
4652;SDS011;9900;48.738;9.306;2022-10-26T06:54:14;8.30;;;4.50;;
4652;SDS011;9900;48.738;9.306;2022-10-26T06:56:45;8.53;;;4.50;;
4652;SDS011;9900;48.738;9.306;2022-10-26T06:59:15;7.90;;;4.43;;
4652;SDS011;9900;48.738;9.306;2022-10-26T07:01:45;10.07;;;4.50;;
4652;SDS011;9900;48.738;9.306;2022-10-26T07:04:14;7.63;;;4.67;;
4652;SDS011;9900;48.738;9.306;2022-10-26T07:06:44;5.60;;;4.03;;
4652;SDS011;9900;48.738;9.306;2022-10-26T07:09:13;9.73;;;4.30;;
4652;SDS011;9900;48.738;9.306;2022-10-26T07:11:45;9.30;;;4.27;;
4652;SDS011;9900;48.738;9.306;2022-10-26T07:14:14;13.60;;;4.43;;
4652;SDS011;9900;48.738;9.306;2022-10-26T07:16:42;10.57;;;4.50;;
4652;SDS011;9900;48.738;9.306;2022-10-26T07:19:11;9.87;;;4.10;;
4652;SDS011;9900;48.738;9.306;2022-10-26T07:21:39;8.30;;;3.90;;
4652;SDS011;9900;48.738;9.306;2022-10-26T07:24:09;10.77;;;4.63;;
4652;SDS011;9900;48.738;9.306;2022-10-26T07:26:38;9.10;;;4.93;;
4652;SDS011;9900;48.738;9.306;2022-10-26T07:29:07;14.53;;;5.40;;
4652;SDS011;9900;48.738;9.306;2022-10-26T07:31:35;11.03;;;4.70;;
4652;SDS011;9900;48.738;9.306;2022-10-26T07:34:04;11.13;;;4.30;;
4652;SDS011;9900;48.738;9.306;2022-10-26T07:36:33;8.47;;;4.63;;
4652;SDS011;9900;48.738;9.306;2022-10-26T07:39:02;9.13;;;3.93;;
4652;SDS011;9900;48.738;9.306;2022-10-26T07:41:32;9.90;;;4.40;;
4652;SDS011;9900;48.738;9.306;2022-10-26T07:44:01;8.33;;;4.30;;
4652;SDS011;9900;48.738;9.306;2022-10-26T07:46:30;6.70;;;4.30;;
4652;SDS011;9900;48.738;9.306;2022-10-26T07:48:59;16.77;;;5.27;;
4652;SDS011;9900;48.738;9.306;2022-10-26T07:51:27;11.37;;;4.50;;
4652;SDS011;9900;48.738;9.306;2022-10-26T07:53:56;6.17;;;4.00;;
4652;SDS011;9900;48.738;9.306;2022-10-26T07:56:25;10.27;;;3.97;;
4652;SDS011;9900;48.738;9.306;2022-10-26T07:58:56;14.10;;;6.00;;
4652;SDS011;9900;48.738;9.306;2022-10-26T08:01:25;11.33;;;4.53;;
4652;SDS011;9900;48.738;9.306;2022-10-26T08:03:54;13.03;;;4.80;;
4652;SDS011;9900;48.738;9.306;2022-10-26T08:06:22;12.30;;;4.83;;
4652;SDS011;9900;48.738;9.306;2022-10-26T08:08:51;9.40;;;4.80;;
4652;SDS011;9900;48.738;9.306;2022-10-26T08:11:20;11.30;;;4.90;;
4652;SDS011;9900;48.738;9.306;2022-10-26T08:13:50;9.50;;;4.73;;
4652;SDS011;9900;48.738;9.306;2022-10-26T08:16:20;11.77;;;5.03;;
4652;SDS011;9900;48.738;9.306;2022-10-26T08:18:49;12.87;;;5.00;;
4652;SDS011;9900;48.738;9.306;2022-10-26T08:21:18;11.57;;;5.23;;
4652;SDS011;9900;48.738;9.306;2022-10-26T08:24:05;10.00;;;5.20;;
4652;SDS011;9900;48.738;9.306;2022-10-26T08:26:34;13.17;;;5.53;;
4652;SDS011;9900;48.738;9.306;2022-10-26T08:29:03;14.07;;;5.70;;
4652;SDS011;9900;48.738;9.306;2022-10-26T08:31:33;9.60;;;6.17;;
4652;SDS011;9900;48.738;9.306;2022-10-26T08:34:02;10.23;;;5.43;;
4652;SDS011;9900;48.738;9.306;2022-10-26T08:36:31;9.50;;;4.90;;
4652;SDS011;9900;48.738;9.306;2022-10-26T08:38:59;7.00;;;4.60;;
4652;SDS011;9900;48.738;9.306;2022-10-26T08:41:32;7.20;;;4.03;;
4652;SDS011;9900;48.738;9.306;2022-10-26T08:44:04;8.27;;;4.13;;
4652;SDS011;9900;48.738;9.306;2022-10-26T08:46:40;5.97;;;3.77;;
4652;SDS011;9900;48.738;9.306;2022-10-26T08:49:15;9.80;;;5.00;;
4652;SDS011;9900;48.738;9.306;2022-10-26T08:51:46;6.30;;;4.03;;
4652;SDS011;9900;48.738;9.306;2022-10-26T08:54:17;8.70;;;4.43;;
4652;SDS011;9900;48.738;9.306;2022-10-26T08:56:49;7.67;;;4.07;;
4652;SDS011;9900;48.738;9.306;2022-10-26T08:59:23;10.87;;;3.63;;
4652;SDS011;9900;48.738;9.306;2022-10-26T09:01:59;5.97;;;3.97;;
4652;SDS011;9900;48.738;9.306;2022-10-26T09:04:29;6.07;;;4.03;;
4652;SDS011;9900;48.738;9.306;2022-10-26T09:07:01;4.63;;;3.50;;
4652;SDS011;9900;48.738;9.306;2022-10-26T09:09:37;11.23;;;4.30;;
4652;SDS011;9900;48.738;9.306;2022-10-26T09:12:11;7.67;;;4.00;;
4652;SDS011;9900;48.738;9.306;2022-10-26T09:14:44;7.20;;;5.20;;
4652;SDS011;9900;48.738;9.306;2022-10-26T09:17:22;13.10;;;5.50;;
4652;SDS011;9900;48.738;9.306;2022-10-26T09:20:03;10.40;;;5.80;;
4652;SDS011;9900;48.738;9.306;2022-10-26T09:22:40;11.40;;;5.67;;
4652;SDS011;9900;48.738;9.306;2022-10-26T09:25:15;9.40;;;5.30;;
4652;SDS011;9900;48.738;9.306;2022-10-26T09:27:46;9.30;;;4.80;;
4652;SDS011;9900;48.738;9.306;2022-10-26T09:30:18;8.50;;;4.70;;
4652;SDS011;9900;48.738;9.306;2022-10-26T09:32:49;12.33;;;4.60;;
4652;SDS011;9900;48.738;9.306;2022-10-26T09:35:21;8.00;;;4.63;;
4652;SDS011;9900;48.738;9.306;2022-10-26T09:37:51;10.40;;;5.17;;
4652;SDS011;9900;48.738;9.306;2022-10-26T09:40:23;9.13;;;5.00;;
4652;SDS011;9900;48.738;9.306;2022-10-26T09:42:57;10.10;;;5.13;;
4652;SDS011;9900;48.738;9.306;2022-10-26T09:45:28;14.37;;;4.73;;
4652;SDS011;9900;48.738;9.306;2022-10-26T09:48:00;8.57;;;3.80;;
4652;SDS011;9900;48.738;9.306;2022-10-26T09:50:34;11.80;;;4.30;;
4652;SDS011;9900;48.738;9.306;2022-10-26T09:53:04;5.77;;;3.60;;
4652;SDS011;9900;48.738;9.306;2022-10-26T09:55:33;7.87;;;4.10;;
4652;SDS011;9900;48.738;9.306;2022-10-26T09:58:09;5.70;;;4.07;;
4652;SDS011;9900;48.738;9.306;2022-10-26T10:00:41;7.97;;;3.80;;
4652;SDS011;9900;48.738;9.306;2022-10-26T10:03:20;6.10;;;3.57;;
4652;SDS011;9900;48.738;9.306;2022-10-26T10:05:52;7.30;;;4.10;;
4652;SDS011;9900;48.738;9.306;2022-10-26T10:08:22;19.40;;;4.23;;
4652;SDS011;9900;48.738;9.306;2022-10-26T10:10:52;9.70;;;3.47;;
4652;SDS011;9900;48.738;9.306;2022-10-26T10:13:22;6.67;;;3.30;;
4652;SDS011;9900;48.738;9.306;2022-10-26T10:15:53;6.90;;;3.57;;
4652;SDS011;9900;48.738;9.306;2022-10-26T10:18:24;7.63;;;3.70;;
4652;SDS011;9900;48.738;9.306;2022-10-26T10:20:53;6.70;;;3.30;;
4652;SDS011;9900;48.738;9.306;2022-10-26T10:23:27;10.30;;;3.87;;
4652;SDS011;9900;48.738;9.306;2022-10-26T10:26:02;19.67;;;3.67;;
4652;SDS011;9900;48.738;9.306;2022-10-26T10:28:33;15.50;;;4.47;;
4652;SDS011;9900;48.738;9.306;2022-10-26T10:31:03;8.50;;;3.70;;
4652;SDS011;9900;48.738;9.306;2022-10-26T10:33:35;11.80;;;3.90;;
4652;SDS011;9900;48.738;9.306;2022-10-26T10:36:09;7.43;;;4.10;;
4652;SDS011;9900;48.738;9.306;2022-10-26T10:38:39;7.50;;;3.77;;
4652;SDS011;9900;48.738;9.306;2022-10-26T10:41:20;11.17;;;3.30;;
4652;SDS011;9900;48.738;9.306;2022-10-26T10:43:51;4.93;;;3.03;;
4652;SDS011;9900;48.738;9.306;2022-10-26T10:46:21;5.43;;;3.20;;
4652;SDS011;9900;48.738;9.306;2022-10-26T10:48:54;7.77;;;2.33;;
4652;SDS011;9900;48.738;9.306;2022-10-26T10:51:30;5.97;;;2.63;;
4652;SDS011;9900;48.738;9.306;2022-10-26T10:54:04;9.10;;;2.47;;
4652;SDS011;9900;48.738;9.306;2022-10-26T10:56:34;12.00;;;2.83;;
4652;SDS011;9900;48.738;9.306;2022-10-26T10:59:09;12.30;;;2.60;;
4652;SDS011;9900;48.738;9.306;2022-10-26T11:01:47;6.73;;;2.93;;
4652;SDS011;9900;48.738;9.306;2022-10-26T11:04:23;19.40;;;3.60;;
4652;SDS011;9900;48.738;9.306;2022-10-26T11:07:01;6.60;;;2.50;;
4652;SDS011;9900;48.738;9.306;2022-10-26T11:09:32;7.23;;;3.00;;
4652;SDS011;9900;48.738;9.306;2022-10-26T11:12:02;6.27;;;2.60;;
4652;SDS011;9900;48.738;9.306;2022-10-26T11:14:37;9.10;;;2.43;;
4652;SDS011;9900;48.738;9.306;2022-10-26T11:17:07;11.07;;;3.43;;
4652;SDS011;9900;48.738;9.306;2022-10-26T11:19:44;11.10;;;2.53;;
4652;SDS011;9900;48.738;9.306;2022-10-26T11:22:17;6.40;;;2.57;;
4652;SDS011;9900;48.738;9.306;2022-10-26T11:24:52;10.73;;;3.60;;
4652;SDS011;9900;48.738;9.306;2022-10-26T11:27:24;4.13;;;2.50;;
4652;SDS011;9900;48.738;9.306;2022-10-26T11:29:58;9.73;;;2.73;;
4652;SDS011;9900;48.738;9.306;2022-10-26T11:32:31;5.83;;;2.60;;
4652;SDS011;9900;48.738;9.306;2022-10-26T11:35:08;7.97;;;2.50;;
4652;SDS011;9900;48.738;9.306;2022-10-26T11:37:41;7.53;;;2.37;;
4652;SDS011;9900;48.738;9.306;2022-10-26T11:40:15;7.40;;;2.17;;
4652;SDS011;9900;48.738;9.306;2022-10-26T11:42:51;6.33;;;2.33;;
4652;SDS011;9900;48.738;9.306;2022-10-26T11:45:25;7.43;;;2.17;;
4652;SDS011;9900;48.738;9.306;2022-10-26T11:47:56;4.53;;;1.97;;
4652;SDS011;9900;48.738;9.306;2022-10-26T11:50:31;9.30;;;2.00;;
4652;SDS011;9900;48.738;9.306;2022-10-26T11:53:01;5.70;;;1.90;;
4652;SDS011;9900;48.738;9.306;2022-10-26T11:55:35;7.37;;;1.83;;
4652;SDS011;9900;48.738;9.306;2022-10-26T11:58:05;5.73;;;2.07;;
4652;SDS011;9900;48.738;9.306;2022-10-26T12:00:36;5.30;;;2.20;;
4652;SDS011;9900;48.738;9.306;2022-10-26T12:03:11;2.60;;;1.77;;
4652;SDS011;9900;48.738;9.306;2022-10-26T12:05:45;6.50;;;1.90;;
4652;SDS011;9900;48.738;9.306;2022-10-26T12:08:17;10.33;;;2.07;;
4652;SDS011;9900;48.738;9.306;2022-10-26T12:10:50;4.30;;;1.80;;
4652;SDS011;9900;48.738;9.306;2022-10-26T12:13:24;3.60;;;1.63;;
4652;SDS011;9900;48.738;9.306;2022-10-26T12:15:55;7.43;;;1.70;;
4652;SDS011;9900;48.738;9.306;2022-10-26T12:18:33;4.30;;;1.63;;
4652;SDS011;9900;48.738;9.306;2022-10-26T12:21:25;9.07;;;2.10;;
4652;SDS011;9900;48.738;9.306;2022-10-26T12:23:56;4.33;;;1.87;;
4652;SDS011;9900;48.738;9.306;2022-10-26T12:41:28;10.47;;;1.97;;
4652;SDS011;9900;48.738;9.306;2022-10-26T12:43:57;7.53;;;2.40;;
4652;SDS011;9900;48.738;9.306;2022-10-26T12:46:38;7.83;;;2.07;;
4652;SDS011;9900;48.738;9.306;2022-10-26T12:52:30;4.03;;;1.60;;
4652;SDS011;9900;48.738;9.306;2022-10-26T12:58:08;18.07;;;2.70;;
4652;SDS011;9900;48.738;9.306;2022-10-26T13:00:47;9.57;;;1.93;;
4652;SDS011;9900;48.738;9.306;2022-10-26T13:03:24;10.87;;;2.03;;
4652;SDS011;9900;48.738;9.306;2022-10-26T13:06:02;9.87;;;1.80;;
4652;SDS011;9900;48.738;9.306;2022-10-26T13:08:39;5.37;;;1.67;;
4652;SDS011;9900;48.738;9.306;2022-10-26T13:11:12;6.57;;;2.40;;
4652;SDS011;9900;48.738;9.306;2022-10-26T13:13:50;4.07;;;1.73;;
4652;SDS011;9900;48.738;9.306;2022-10-26T13:16:22;7.23;;;2.50;;
4652;SDS011;9900;48.738;9.306;2022-10-26T13:18:52;13.20;;;2.90;;
4652;SDS011;9900;48.738;9.306;2022-10-26T13:21:21;6.17;;;2.63;;
4652;SDS011;9900;48.738;9.306;2022-10-26T13:23:55;8.03;;;2.00;;
4652;SDS011;9900;48.738;9.306;2022-10-26T13:26:28;5.00;;;2.20;;
4652;SDS011;9900;48.738;9.306;2022-10-26T13:28:59;12.63;;;2.47;;
4652;SDS011;9900;48.738;9.306;2022-10-26T13:34:26;8.50;;;2.20;;
4652;SDS011;9900;48.738;9.306;2022-10-26T13:37:11;10.20;;;3.80;;
4652;SDS011;9900;48.738;9.306;2022-10-26T13:39:44;3.57;;;2.27;;
4652;SDS011;9900;48.738;9.306;2022-10-26T13:42:14;4.80;;;2.10;;
4652;SDS011;9900;48.738;9.306;2022-10-26T13:44:47;10.00;;;1.97;;
4652;SDS011;9900;48.738;9.306;2022-10-26T13:47:21;2.10;;;1.43;;
4652;SDS011;9900;48.738;9.306;2022-10-26T13:49:53;6.80;;;1.83;;
4652;SDS011;9900;48.738;9.306;2022-10-26T13:52:25;5.63;;;1.90;;
4652;SDS011;9900;48.738;9.306;2022-10-26T13:54:56;9.43;;;1.93;;
4652;SDS011;9900;48.738;9.306;2022-10-26T13:57:28;6.37;;;1.97;;
4652;SDS011;9900;48.738;9.306;2022-10-26T14:00:01;7.87;;;1.70;;
4652;SDS011;9900;48.738;9.306;2022-10-26T14:02:39;5.20;;;2.00;;
4652;SDS011;9900;48.738;9.306;2022-10-26T14:05:10;6.13;;;2.17;;
4652;SDS011;9900;48.738;9.306;2022-10-26T14:07:41;8.83;;;2.00;;
4652;SDS011;9900;48.738;9.306;2022-10-26T14:10:21;5.40;;;1.70;;
4652;SDS011;9900;48.738;9.306;2022-10-26T14:12:51;8.70;;;2.40;;
4652;SDS011;9900;48.738;9.306;2022-10-26T14:15:23;9.87;;;2.20;;
4652;SDS011;9900;48.738;9.306;2022-10-26T14:17:54;5.97;;;1.80;;
4652;SDS011;9900;48.738;9.306;2022-10-26T14:20:23;9.50;;;1.93;;
4652;SDS011;9900;48.738;9.306;2022-10-26T14:22:53;6.93;;;2.30;;
4652;SDS011;9900;48.738;9.306;2022-10-26T14:25:23;5.57;;;2.30;;
4652;SDS011;9900;48.738;9.306;2022-10-26T14:28:19;5.83;;;2.17;;
4652;SDS011;9900;48.738;9.306;2022-10-26T14:30:50;4.33;;;2.00;;
4652;SDS011;9900;48.738;9.306;2022-10-26T14:33:22;4.93;;;2.03;;
4652;SDS011;9900;48.738;9.306;2022-10-26T14:35:53;6.23;;;2.10;;
4652;SDS011;9900;48.738;9.306;2022-10-26T14:38:23;10.00;;;3.37;;
4652;SDS011;9900;48.738;9.306;2022-10-26T14:40:53;9.00;;;2.67;;
4652;SDS011;9900;48.738;9.306;2022-10-26T14:43:23;6.30;;;2.10;;
4652;SDS011;9900;48.738;9.306;2022-10-26T14:45:53;7.80;;;2.57;;
4652;SDS011;9900;48.738;9.306;2022-10-26T14:48:24;8.50;;;2.23;;
4652;SDS011;9900;48.738;9.306;2022-10-26T14:50:56;5.57;;;2.07;;
4652;SDS011;9900;48.738;9.306;2022-10-26T14:53:30;7.17;;;2.33;;
4652;SDS011;9900;48.738;9.306;2022-10-26T14:56:02;4.10;;;1.93;;
4652;SDS011;9900;48.738;9.306;2022-10-26T14:58:32;5.60;;;1.80;;
4652;SDS011;9900;48.738;9.306;2022-10-26T15:04:03;9.20;;;2.27;;
4652;SDS011;9900;48.738;9.306;2022-10-26T15:06:37;4.60;;;1.87;;
4652;SDS011;9900;48.738;9.306;2022-10-26T15:09:27;6.93;;;2.67;;
4652;SDS011;9900;48.738;9.306;2022-10-26T15:11:58;5.80;;;1.97;;
4652;SDS011;9900;48.738;9.306;2022-10-26T15:14:29;6.63;;;1.87;;
4652;SDS011;9900;48.738;9.306;2022-10-26T15:16:59;6.93;;;1.87;;
4652;SDS011;9900;48.738;9.306;2022-10-26T15:19:28;7.67;;;1.80;;
4652;SDS011;9900;48.738;9.306;2022-10-26T15:21:56;6.33;;;2.23;;
4652;SDS011;9900;48.738;9.306;2022-10-26T15:24:29;5.80;;;2.10;;
4652;SDS011;9900;48.738;9.306;2022-10-26T15:27:11;4.50;;;2.23;;
4652;SDS011;9900;48.738;9.306;2022-10-26T15:29:41;13.37;;;3.50;;
4652;SDS011;9900;48.738;9.306;2022-10-26T15:32:19;5.57;;;2.73;;
4652;SDS011;9900;48.738;9.306;2022-10-26T15:35:20;7.93;;;3.23;;
4652;SDS011;9900;48.738;9.306;2022-10-26T15:37:53;7.43;;;2.53;;
4652;SDS011;9900;48.738;9.306;2022-10-26T15:40:23;5.33;;;2.27;;
4652;SDS011;9900;48.738;9.306;2022-10-26T15:42:58;8.53;;;2.90;;
4652;SDS011;9900;48.738;9.306;2022-10-26T15:45:29;14.93;;;3.10;;
4652;SDS011;9900;48.738;9.306;2022-10-26T15:48:09;13.40;;;2.63;;
4652;SDS011;9900;48.738;9.306;2022-10-26T15:50:44;8.73;;;2.83;;
4652;SDS011;9900;48.738;9.306;2022-10-26T15:53:15;12.37;;;3.90;;
4652;SDS011;9900;48.738;9.306;2022-10-26T15:55:46;16.93;;;3.33;;
4652;SDS011;9900;48.738;9.306;2022-10-26T15:58:15;13.93;;;3.53;;
4652;SDS011;9900;48.738;9.306;2022-10-26T16:00:44;11.03;;;3.70;;
4652;SDS011;9900;48.738;9.306;2022-10-26T16:03:15;7.80;;;3.50;;
4652;SDS011;9900;48.738;9.306;2022-10-26T16:05:45;13.77;;;3.70;;
4652;SDS011;9900;48.738;9.306;2022-10-26T16:08:14;11.30;;;3.70;;
4652;SDS011;9900;48.738;9.306;2022-10-26T16:10:45;17.17;;;4.70;;
4652;SDS011;9900;48.738;9.306;2022-10-26T16:13:14;23.97;;;4.40;;
4652;SDS011;9900;48.738;9.306;2022-10-26T16:15:42;9.77;;;4.47;;